Time;durP1;ratioP1;P1;durP2;ratioP2;P2;SDS_P1;SDS_P2;PMS_P1;PMS_P2;Temp;Humidity;BMP_temperature;BMP_pressure;BME280_temperature;BME280_humidity;BME280_pressure;Samples;Min_cycle;Max_cycle;Signal;HPM_P1;HPM_P2
2022/03/29 00:01:15;;;;;;;10.25;3.80;;;;;;;20.57;45.58;101609.38;5053499;28;20100;-60
2022/03/29 00:03:40;;;;;;;8.90;3.67;;;;;;;20.57;45.42;101609.38;5052041;28;20527;-61
2022/03/29 00:06:06;;;;;;;8.88;3.72;;;;;;;20.55;45.50;101611.28;5053294;28;20451;-60
2022/03/29 00:08:31;;;;;;;7.20;3.60;;;;;;;20.52;45.59;101603.63;5053277;28;20031;-60
2022/03/29 00:10:56;;;;;;;8.75;4.00;;;;;;;20.52;45.42;101608.06;5052116;28;20033;-60
2022/03/29 00:13:22;;;;;;;6.90;3.65;;;;;;;20.51;45.42;101606.38;5053185;28;20484;-60
2022/03/29 00:15:47;;;;;;;8.55;3.63;;;;;;;20.47;45.58;101600.47;5053135;28;20029;-60
2022/03/29 00:18:12;;;;;;;7.77;3.93;;;;;;;20.46;45.51;101597.00;5052558;28;20075;-60
2022/03/29 00:20:38;;;;;;;9.90;4.43;;;;;;;20.47;45.69;101600.47;5052720;28;20277;-59
2022/03/29 00:23:03;;;;;;;9.63;3.90;;;;;;;20.46;45.62;101601.47;5053133;28;20281;-60
2022/03/29 00:25:29;;;;;;;10.25;4.07;;;;;;;20.46;45.51;101598.81;5052605;28;20036;-60
2022/03/29 00:27:54;;;;;;;8.20;4.43;;;;;;;20.47;45.36;101595.19;5052780;28;20465;-60
2022/03/29 00:30:20;;;;;;;7.57;4.03;;;;;;;20.46;45.49;101588.22;5052335;28;20086;-60
2022/03/29 00:32:47;;;;;;;8.15;3.95;;;;;;;20.43;45.44;101573.41;5052812;28;20025;-60
2022/03/29 00:35:12;;;;;;;7.72;3.72;;;;;;;20.44;45.49;101577.75;5053095;28;20021;-60
2022/03/29 00:37:39;;;;;;;10.00;4.28;;;;;;;20.43;45.30;101575.22;5051903;28;20023;-60
2022/03/29 00:40:07;;;;;;;9.13;4.10;;;;;;;20.41;45.71;101574.47;5052640;28;20029;-60
2022/03/29 00:42:32;;;;;;;8.98;4.18;;;;;;;20.40;45.48;101570.16;5052610;28;20032;-59
2022/03/29 00:44:58;;;;;;;8.55;4.57;;;;;;;20.39;45.32;101565.81;5051958;28;20408;-59
2022/03/29 00:47:24;;;;;;;7.53;3.90;;;;;;;20.39;45.77;101568.47;5052938;28;20017;-58
2022/03/29 00:49:49;;;;;;;8.52;4.03;;;;;;;20.39;45.52;101565.81;5052690;28;20474;-59
2022/03/29 00:52:15;;;;;;;7.13;3.50;;;;;;;20.36;45.52;101559.00;5052125;28;20025;-59
2022/03/29 00:54:41;;;;;;;7.05;3.67;;;;;;;20.36;45.48;101553.69;5052225;28;20408;-59
2022/03/29 00:57:07;;;;;;;9.52;4.65;;;;;;;20.36;45.77;101553.69;5052555;28;20029;-59
2022/03/29 00:59:32;;;;;;;8.45;4.28;;;;;;;20.35;45.19;101552.00;5052008;28;20035;-59
2022/03/29 01:01:57;;;;;;;8.55;3.95;;;;;;;20.31;45.59;101545.25;5052507;28;20066;-59
2022/03/29 01:04:25;;;;;;;8.93;4.28;;;;;;;20.32;45.82;101540.81;5052767;28;20052;-59
2022/03/29 01:06:50;;;;;;;8.68;4.25;;;;;;;20.31;45.74;101545.25;5051531;28;20070;-59
2022/03/29 01:09:15;;;;;;;8.75;4.22;;;;;;;20.28;45.74;101543.72;5052446;28;20486;-59
2022/03/29 01:11:41;;;;;;;8.95;3.92;;;;;;;20.27;45.66;101536.72;5052348;28;20032;-59
2022/03/29 01:14:06;;;;;;;10.10;4.93;;;;;;;20.27;45.56;101538.53;5051620;28;20037;-59
2022/03/29 01:19:18;;;;;;;8.48;4.40;;;;;;;20.26;45.64;101529.72;5056568;28;20035;-60
2022/03/29 01:21:54;;;;;;;7.47;3.92;;;;;;;20.24;45.57;101534.31;5055401;28;20018;-60
2022/03/29 01:24:20;;;;;;;8.48;4.30;;;;;;;20.24;45.48;101529.03;5056519;28;20132;-60
2022/03/29 01:26:46;;;;;;;6.82;4.07;;;;;;;20.20;45.53;101522.31;5055557;28;20484;-58
2022/03/29 01:29:13;;;;;;;8.18;4.00;;;;;;;20.22;45.52;101525.66;5056527;28;20021;-59
2022/03/29 01:31:38;;;;;;;8.52;4.60;;;;;;;20.20;45.52;101530.25;5056026;28;20051;-59
2022/03/29 01:34:04;;;;;;;8.30;4.10;;;;;;;20.20;45.77;101527.59;5055395;28;20563;-59
2022/03/29 01:36:30;;;;;;;7.60;4.30;;;;;;;20.20;45.60;101524.97;5056270;28;20017;-59
2022/03/29 01:38:55;;;;;;;8.55;4.57;;;;;;;20.20;45.71;101524.97;5055739;28;20031;-59
2022/03/29 01:41:20;;;;;;;8.45;4.47;;;;;;;20.20;45.47;101524.09;5055363;28;20025;-59
2022/03/29 01:43:46;;;;;;;7.83;4.47;;;;;;;20.18;45.56;101521.56;5055653;28;20374;-60
2022/03/29 01:46:12;;;;;;;9.07;4.73;;;;;;;20.18;45.58;101518.91;5055884;28;20313;-59
2022/03/29 01:48:38;;;;;;;8.50;4.68;;;;;;;20.15;45.73;101507.75;5054960;28;20356;-59
2022/03/29 01:51:04;;;;;;;9.25;4.70;;;;;;;20.12;45.95;101511.47;5055769;28;20025;-60
2022/03/29 01:53:29;;;;;;;8.30;4.47;;;;;;;20.13;45.81;101512.34;5055876;28;20017;-60
2022/03/29 01:55:56;;;;;;;6.80;4.43;;;;;;;20.12;45.68;101506.19;5054696;28;20041;-59
2022/03/29 01:58:25;;;;;;;7.30;4.22;;;;;;;20.12;45.79;101503.53;5055761;28;20856;-59
2022/03/29 02:00:50;;;;;;;7.90;4.72;;;;;;;20.11;45.80;101501.88;5055432;28;20052;-60
2022/03/29 02:03:15;;;;;;;7.72;4.38;;;;;;;20.10;45.73;101495.72;5054788;28;20497;-59
2022/03/29 02:05:41;;;;;;;9.57;5.00;;;;;;;20.10;45.90;101494.88;5055545;28;20039;-59
2022/03/29 02:08:07;;;;;;;8.67;4.80;;;;;;;20.08;45.66;101489.72;5055678;28;20028;-59
2022/03/29 02:10:35;;;;;;;8.93;4.70;;;;;;;20.08;45.60;101484.41;5054943;28;20363;-59
2022/03/29 02:13:00;;;;;;;7.97;4.15;;;;;;;20.06;45.83;101478.41;5055245;28;20036;-59
2022/03/29 02:15:26;;;;;;;8.52;5.07;;;;;;;20.05;45.80;101486.47;5055544;28;20025;-60
2022/03/29 02:17:52;;;;;;;8.23;4.85;;;;;;;20.03;46.19;101477.81;5054766;28;20381;-60
2022/03/29 02:20:19;;;;;;;8.48;4.50;;;;;;;20.05;45.89;101478.53;5055645;28;20464;-60
2022/03/29 02:22:44;;;;;;;10.07;5.13;;;;;;;20.04;45.96;101474.19;5055213;28;20039;-59
2022/03/29 02:25:11;;;;;;;8.25;4.90;;;;;;;20.03;45.75;101470.72;5054724;28;20115;-60
2022/03/29 02:27:45;;;;;;;8.15;4.50;;;;;;;20.02;46.01;101463.72;5054534;28;20456;-59
2022/03/29 02:30:12;;;;;;;8.75;5.03;;;;;;;20.02;45.84;101454.97;5054446;28;20044;-60
2022/03/29 02:32:41;;;;;;;8.98;4.95;;;;;;;20.00;45.65;101448.97;5055207;28;20032;-60
2022/03/29 02:35:07;;;;;;;8.70;5.07;;;;;;;20.02;45.65;101458.44;5054990;28;20545;-60
2022/03/29 02:37:33;;;;;;;9.57;5.00;;;;;;;20.00;45.97;101452.44;5054156;28;20112;-59
2022/03/29 02:39:59;;;;;;;7.78;4.50;;;;;;;19.98;45.88;101448.22;5054868;28;20059;-60
2022/03/29 02:42:24;;;;;;;9.43;5.18;;;;;;;19.98;45.72;101453.50;5055299;28;20091;-59
2022/03/29 02:44:49;;;;;;;7.63;4.70;;;;;;;19.97;45.66;101444.75;5054702;28;20380;-60
2022/03/29 02:47:14;;;;;;;8.17;4.73;;;;;;;19.98;45.90;101438.50;5055139;28;20266;-59
2022/03/29 02:49:40;;;;;;;9.25;5.03;;;;;;;19.97;45.70;101434.16;5055342;28;20024;-60
2022/03/29 02:52:05;;;;;;;8.63;5.17;;;;;;;19.96;45.58;101434.28;5054383;28;20036;-60
2022/03/29 02:54:31;;;;;;;8.75;4.70;;;;;;;19.96;45.61;101431.66;5054892;28;20266;-60
2022/03/29 02:56:56;;;;;;;10.32;5.43;;;;;;;19.98;45.84;101427.06;5054207;28;20095;-60
2022/03/29 02:59:21;;;;;;;9.07;5.20;;;;;;;19.96;45.75;101421.06;5053688;28;20025;-60
2022/03/29 03:01:46;;;;;;;7.90;4.93;;;;;;;19.94;45.79;101427.31;5054364;28;20757;-60
2022/03/29 03:04:14;;;;;;;9.43;4.77;;;;;;;19.93;45.84;101423.00;5054192;28;20642;-60
2022/03/29 03:06:41;;;;;;;9.63;5.00;;;;;;;19.90;45.88;101417.94;5053838;28;20274;-60
2022/03/29 03:09:07;;;;;;;8.93;4.90;;;;;;;19.91;46.06;101416.97;5054083;28;20096;-60
2022/03/29 03:11:32;;;;;;;8.07;5.28;;;;;;;19.89;46.03;101415.44;5054446;28;20108;-60
2022/03/29 03:14:00;;;;;;;7.13;4.90;;;;;;;19.89;45.90;101416.25;5053035;28;20048;-59
2022/03/29 03:16:29;;;;;;;8.30;4.97;;;;;;;19.88;45.77;101411.91;5054111;28;20104;-59
2022/03/29 03:18:57;;;;;;;8.70;5.57;;;;;;;19.87;45.85;101409.44;5054160;28;20111;-59
2022/03/29 03:21:22;;;;;;;9.48;5.25;;;;;;;19.89;45.86;101413.59;5053428;28;20027;-60
2022/03/29 03:23:51;;;;;;;8.17;5.63;;;;;;;19.90;45.78;101401.22;5054063;28;20025;-60
2022/03/29 03:26:16;;;;;;;7.82;5.43;;;;;;;19.89;45.64;101400.38;5053240;28;20676;-60
2022/03/29 03:28:41;;;;;;;8.80;5.70;;;;;;;19.87;45.85;101397.03;5053867;28;20017;-59
2022/03/29 03:31:06;;;;;;;9.50;5.53;;;;;;;19.88;45.76;101393.41;5053548;28;20319;-59
2022/03/29 03:33:32;;;;;;;10.60;5.53;;;;;;;19.88;45.60;101395.22;5053274;28;20033;-59
2022/03/29 03:35:57;;;;;;;10.37;5.77;;;;;;;19.86;46.07;101397.16;5053720;28;20740;-60
2022/03/29 03:38:22;;;;;;;8.55;5.43;;;;;;;19.83;45.95;101395.59;5053193;28;20349;-60
2022/03/29 03:40:48;;;;;;;7.70;5.10;;;;;;;19.83;45.94;101394.75;5053048;28;20029;-59
2022/03/29 03:43:13;;;;;;;8.97;5.43;;;;;;;19.83;45.90;101392.94;5053418;28;20269;-60
2022/03/29 03:45:38;;;;;;;8.75;5.60;;;;;;;19.84;45.76;101394.63;5053509;28;20348;-59
2022/03/29 03:48:04;;;;;;;10.75;6.00;;;;;;;19.83;45.68;101390.28;5052460;28;20591;-60
2022/03/29 03:50:30;;;;;;;8.63;5.60;;;;;;;19.82;45.96;101390.41;5053648;28;20110;-59
2022/03/29 03:52:55;;;;;;;9.95;5.50;;;;;;;19.83;45.97;101395.59;5053329;28;20036;-59
2022/03/29 03:55:21;;;;;;;8.30;5.68;;;;;;;19.82;45.88;101390.41;5052615;28;20037;-59
2022/03/29 03:57:47;;;;;;;9.60;6.13;;;;;;;19.80;45.78;101387.88;5053341;28;20033;-59
2022/03/29 04:00:13;;;;;;;9.15;5.32;;;;;;;19.81;45.92;101386.94;5053162;28;20027;-59
2022/03/29 04:02:39;;;;;;;9.35;5.72;;;;;;;19.80;45.96;101381.78;5052580;28;20025;-59
2022/03/29 04:05:08;;;;;;;9.88;5.95;;;;;;;19.79;45.77;101375.66;5053012;28;20029;-60
2022/03/29 04:07:33;;;;;;;8.05;5.20;;;;;;;19.78;46.03;101371.31;5053292;28;20021;-60
2022/03/29 04:09:58;;;;;;;8.50;5.83;;;;;;;19.74;45.74;101360.13;5052059;28;20083;-59
2022/03/29 04:12:23;;;;;;;9.33;5.63;;;;;;;19.77;45.84;101366.97;5053209;28;20327;-60
2022/03/29 04:14:49;;;;;;;10.25;5.65;;;;;;;19.76;45.97;101367.97;5052534;28;20340;-60
2022/03/29 04:17:14;;;;;;;8.73;6.07;;;;;;;19.75;45.72;101363.59;5052526;28;20029;-59
2022/03/29 04:19:39;;;;;;;9.10;5.78;;;;;;;19.75;46.02;101358.31;5052973;28;20457;-59
2022/03/29 04:22:05;;;;;;;9.03;5.60;;;;;;;19.74;46.04;101361.91;5052730;28;20060;-60
2022/03/29 04:24:33;;;;;;;10.52;5.95;;;;;;;19.74;45.94;101349.53;5052320;28;20064;-59
2022/03/29 04:27:01;;;;;;;7.88;5.75;;;;;;;19.74;45.74;101349.53;5052638;28;20082;-59
2022/03/29 04:29:27;;;;;;;10.15;5.97;;;;;;;19.73;45.78;101347.00;5052436;28;20534;-59
2022/03/29 04:31:53;;;;;;;8.80;5.88;;;;;;;19.72;45.87;101340.03;5052827;28;20128;-59
2022/03/29 04:34:18;;;;;;;9.82;5.45;;;;;;;19.70;45.82;101334.88;5052937;28;20029;-59
2022/03/29 04:36:44;;;;;;;11.07;6.35;;;;;;;19.70;45.73;101332.22;5052063;28;20480;-59
2022/03/29 04:39:09;;;;;;;10.80;6.40;;;;;;;19.71;45.93;101331.28;5052649;28;20372;-59
2022/03/29 04:41:34;;;;;;;10.10;6.07;;;;;;;19.69;46.15;101335.84;5052664;28;20274;-60
2022/03/29 04:44:00;;;;;;;10.35;6.03;;;;;;;19.69;45.94;101330.56;5051628;28;20082;-60
2022/03/29 04:46:27;;;;;;;10.02;5.55;;;;;;;19.67;45.78;101316.59;5052746;28;20017;-60
2022/03/29 04:48:52;;;;;;;8.45;5.85;;;;;;;19.69;45.97;101335.84;5052466;28;20411;-60
2022/03/29 04:51:18;;;;;;;9.13;5.97;;;;;;;19.65;45.98;101326.47;5051767;28;20082;-61
2022/03/29 04:53:43;;;;;;;9.95;6.30;;;;;;;19.68;45.88;101331.53;5052573;28;20054;-60
2022/03/29 04:56:08;;;;;;;9.57;6.30;;;;;;;19.68;45.85;101328.03;5052365;28;20045;-60
2022/03/29 04:58:34;;;;;;;9.97;7.20;;;;;;;19.64;45.81;101322.13;5051696;28;20403;-60
2022/03/29 05:00:59;;;;;;;9.53;6.50;;;;;;;19.65;45.77;101325.66;5052446;28;20301;-60
2022/03/29 05:03:25;;;;;;;9.23;6.05;;;;;;;19.65;45.86;101323.81;5052624;28;20071;-60
2022/03/29 05:05:50;;;;;;;9.27;6.82;;;;;;;19.64;45.61;101327.44;5051687;28;20025;-60
2022/03/29 05:08:15;;;;;;;11.02;6.72;;;;;;;19.63;45.88;101327.53;5052490;28;20021;-59
2022/03/29 05:10:40;;;;;;;8.10;5.90;;;;;;;19.56;46.19;101322.75;5052326;28;20025;-59
2022/03/29 05:13:06;;;;;;;9.27;6.28;;;;;;;19.56;45.84;101321.91;5051176;28;20324;-60
2022/03/29 05:15:32;;;;;;;9.20;5.95;;;;;;;19.53;46.31;101320.34;5052620;28;20029;-59
2022/03/29 05:17:57;;;;;;;9.48;6.07;;;;;;;19.53;46.42;101319.50;5052151;28;20115;-59
2022/03/29 05:20:23;;;;;;;9.27;6.00;;;;;;;19.58;46.44;101319.97;5051893;28;20102;-59
2022/03/29 05:22:53;;;;;;;8.10;5.60;;;;;;;19.61;46.43;101311.81;5052121;28;20456;-59
2022/03/29 05:25:21;;;;;;;9.02;5.50;;;;;;;19.65;46.79;101317.72;5052398;28;20392;-59
2022/03/29 05:27:47;;;;;;;9.52;5.05;;;;;;;19.70;46.64;101310.25;5051491;28;20025;-59
2022/03/29 05:30:14;;;;;;;9.02;5.40;;;;;;;19.70;46.97;101311.06;5051978;28;20017;-59
2022/03/29 05:32:39;;;;;;;7.55;4.70;;;;;;;19.76;46.93;101315.06;5052227;28;20029;-59
2022/03/29 05:35:08;;;;;;;6.25;4.60;;;;;;;19.75;47.06;101306.25;5051056;28;20024;-59
2022/03/29 05:37:33;;;;;;;8.93;4.88;;;;;;;19.81;46.83;101306.75;5052069;28;20388;-59
2022/03/29 05:39:58;;;;;;;7.88;4.38;;;;;;;19.84;46.83;101319.75;5051213;28;20028;-60
2022/03/29 05:42:26;;;;;;;8.43;4.70;;;;;;;19.85;46.83;101310.81;5051974;28;20487;-59
2022/03/29 05:44:52;;;;;;;7.72;3.95;;;;;;;19.86;47.09;101318.63;5051740;28;20024;-59
2022/03/29 05:50:01;;;;;;;6.35;3.70;;;;;;;19.90;47.04;101321.88;5051992;28;20036;-60
2022/03/29 05:52:29;;;;;;;7.22;4.00;;;;;;;19.91;46.86;101308.50;5051953;28;20029;-59
2022/03/29 05:54:55;;;;;;;7.03;4.05;;;;;;;19.92;46.89;101312.84;5050862;28;20392;-59
2022/03/29 05:57:21;;;;;;;7.30;4.25;;;;;;;19.96;46.89;101316.06;5052099;28;20075;-60
2022/03/29 05:59:46;;;;;;;6.97;4.20;;;;;;;20.01;46.71;101321.00;5051990;28;20025;-60
2022/03/29 06:02:12;;;;;;;7.28;3.97;;;;;;;20.04;46.65;101313.63;5053860;28;20316;-59
2022/03/29 06:04:39;;;;;;;6.70;3.95;;;;;;;20.08;46.79;101316.91;5055464;28;20131;-60
2022/03/29 06:07:05;;;;;;;6.90;4.28;;;;;;;20.08;46.94;101317.72;5055049;28;20468;-59
2022/03/29 06:09:32;;;;;;;8.05;4.30;;;;;;;20.09;46.60;101313.25;5054910;28;20036;-60
2022/03/29 06:12:01;;;;;;;8.27;4.35;;;;;;;20.11;46.89;101311.34;5055166;28;20460;-60
2022/03/29 06:14:26;;;;;;;7.43;4.13;;;;;;;20.14;46.89;101313.75;5054642;28;20060;-60
2022/03/29 06:16:52;;;;;;;8.77;4.45;;;;;;;20.19;46.74;101321.31;5054361;28;20021;-60
2022/03/29 06:19:18;;;;;;;7.15;4.45;;;;;;;20.22;46.55;101315.72;5055301;28;20035;-60
2022/03/29 06:21:44;;;;;;;6.72;4.40;;;;;;;20.23;46.73;101309.47;5055211;28;20380;-60
2022/03/29 06:24:10;;;;;;;9.10;4.45;;;;;;;20.24;46.64;101308.53;5054180;28;20032;-60
2022/03/29 06:26:39;;;;;;;6.38;4.45;;;;;;;20.23;46.81;101312.97;5055007;28;20113;-60
2022/03/29 06:29:08;;;;;;;9.63;5.63;;;;;;;20.24;45.22;101317.28;5054150;28;20078;-59
2022/03/29 06:31:33;;;;;;;11.25;6.72;;;;;;;20.23;46.00;101309.47;5054974;28;20017;-57
2022/03/29 06:33:59;;;;;;;10.45;5.93;;;;;;;20.27;46.29;101300.34;5054255;28;20139;-58
2022/03/29 06:36:25;;;;;;;8.27;5.23;;;;;;;20.31;45.19;101309.69;5054069;28;20039;-59
2022/03/29 06:38:50;;;;;;;12.68;7.97;;;;;;;20.29;45.53;101307.16;5054891;28;20282;-59
2022/03/29 06:41:15;;;;;;;9.00;5.88;;;;;;;20.31;46.18;101309.69;5054956;28;20059;-59
2022/03/29 06:43:41;;;;;;;8.88;5.43;;;;;;;20.33;46.48;101309.56;5053966;28;20044;-60
2022/03/29 06:46:08;;;;;;;8.57;5.60;;;;;;;20.34;46.38;101311.25;5054461;28;20094;-60
2022/03/29 06:48:34;;;;;;;7.82;5.50;;;;;;;20.36;46.37;101322.53;5054648;28;20095;-60
2022/03/29 06:51:00;;;;;;;8.68;5.53;;;;;;;20.37;46.43;101314.47;5053461;28;20388;-59
2022/03/29 06:53:25;;;;;;;8.60;6.15;;;;;;;20.41;46.27;101315.03;5055093;28;20028;-59
2022/03/29 06:55:51;;;;;;;8.52;5.53;;;;;;;20.39;46.47;101314.34;5054576;28;20423;-59
2022/03/29 06:58:17;;;;;;;8.55;5.82;;;;;;;20.37;46.39;101301.22;5019900;28;20032;-60
2022/03/29 07:00:42;;;;;;;10.15;6.70;;;;;;;20.39;46.37;101306.41;5053451;28;20379;-60
2022/03/29 07:03:08;;;;;;;9.57;5.80;;;;;;;20.38;46.64;101307.38;5054091;28;20025;-60
2022/03/29 07:05:36;;;;;;;8.70;6.03;;;;;;;20.43;46.51;101307.84;5053461;28;20282;-60
2022/03/29 07:08:02;;;;;;;10.95;6.90;;;;;;;20.44;46.75;101301.56;5054039;28;20522;-60
2022/03/29 07:13:11;;;;;;;9.23;6.32;;;;;;;20.51;46.64;101302.72;5052315;28;20032;-60
2022/03/29 07:15:36;;;;;;;8.93;5.90;;;;;;;20.52;46.38;101296.47;5054272;28;20032;-59
2022/03/29 07:18:01;;;;;;;10.50;6.30;;;;;;;20.52;46.32;101287.66;5053846;28;20276;-60
2022/03/29 07:20:27;;;;;;;10.18;6.82;;;;;;;20.56;46.46;101299.69;5053661;28;20811;-60
2022/03/29 07:22:53;;;;;;;10.18;6.82;;;;;;;20.58;46.51;101303.03;5054031;28;20021;-60
2022/03/29 07:25:20;;;;;;;10.95;7.40;;;;;;;20.57;46.57;101306.66;5053161;28;20133;-59
2022/03/29 07:27:46;;;;;;;11.88;7.40;;;;;;;20.54;46.54;101299.81;5054164;28;20029;-59
2022/03/29 07:30:12;;;;;;;13.45;8.32;;;;;;;20.56;46.57;101307.63;5053804;28;20095;-59
2022/03/29 07:32:50;;;;;;;12.30;7.60;;;;;;;20.52;46.61;101303.56;5053178;28;20551;-59
2022/03/29 07:35:17;;;;;;;12.55;7.97;;;;;;;20.53;46.71;101311.38;5054050;28;20029;-59
2022/03/29 07:37:43;;;;;;;14.43;9.15;;;;;;;20.54;46.62;101318.34;5054003;28;20025;-60
2022/03/29 07:40:10;;;;;;;12.98;8.30;;;;;;;20.57;46.65;101317.25;5052842;28;20128;-60
2022/03/29 07:42:38;;;;;;;14.77;9.85;;;;;;;20.61;46.49;101322.16;5053921;28;20033;-60
2022/03/29 07:45:11;;;;;;;14.70;9.68;;;;;;;20.61;46.44;101322.16;5053196;28;20029;-59
2022/03/29 07:47:37;;;;;;;13.10;9.23;;;;;;;20.63;46.32;101325.53;5053026;28;20074;-59
2022/03/29 07:50:06;;;;;;;13.82;9.25;;;;;;;20.64;46.10;101327.22;5053094;28;20123;-59
2022/03/29 07:52:33;;;;;;;13.05;9.32;;;;;;;20.65;46.14;101336.84;5053642;28;20020;-59
2022/03/29 07:54:58;;;;;;;14.68;9.23;;;;;;;20.66;46.11;101337.69;5052356;28;20411;-59
2022/03/29 07:57:25;;;;;;;13.90;9.63;;;;;;;20.65;45.94;101342.16;5053410;28;20028;-60
2022/03/29 07:59:50;;;;;;;14.90;9.38;;;;;;;20.67;46.25;101335.91;5053146;28;20099;-59
2022/03/29 08:02:16;;;;;;;15.15;9.43;;;;;;;20.64;46.53;101337.00;5052746;28;20444;-61
2022/03/29 08:04:41;;;;;;;15.80;10.00;;;;;;;20.66;46.59;101332.38;5053399;28;20025;-60
2022/03/29 08:07:08;;;;;;;18.80;10.63;;;;;;;20.72;46.25;101331.88;5053088;28;20040;-61
2022/03/29 08:09:33;;;;;;;17.08;10.63;;;;;;;20.79;46.04;101329.53;5052699;28;20041;-59
2022/03/29 08:11:59;;;;;;;16.35;11.15;;;;;;;20.81;46.00;101327.63;5052901;28;20013;-61
2022/03/29 08:14:25;;;;;;;16.27;11.13;;;;;;;20.79;45.69;101329.53;5052906;28;20056;-59
2022/03/29 08:16:53;;;;;;;15.80;10.73;;;;;;;20.77;45.66;101326.19;5052651;28;20021;-61
2022/03/29 08:19:30;;;;;;;;;;;;;;;;;;;;;
2022/03/29 08:21:55;;;;;;;16.27;10.43;;;;;;;20.77;45.94;101313.78;5049423;28;20045;-61
2022/03/29 08:24:23;;;;;;;17.33;10.63;;;;;;;20.76;46.02;101317.41;5053416;28;20411;-61
2022/03/29 08:26:51;;;;;;;17.42;10.68;;;;;;;20.76;46.20;101319.22;5052844;28;20078;-59
2022/03/29 08:29:21;;;;;;;14.52;10.02;;;;;;;20.73;46.31;101303.56;5052739;28;20024;-61
2022/03/29 08:31:56;;;;;;;13.52;10.02;;;;;;;20.76;46.16;101313.91;5052994;28;20021;-61
2022/03/29 08:34:21;;;;;;;16.58;9.65;;;;;;;20.79;46.23;101313.66;5053055;28;20461;-61
2022/03/29 08:36:49;;;;;;;16.10;9.45;;;;;;;20.81;46.44;101315.22;5052111;28;20028;-61
2022/03/29 08:39:14;;;;;;;16.52;10.75;;;;;;;20.83;46.14;101312.44;5052819;28;20100;-61
2022/03/29 08:41:49;;;;;;;14.07;10.05;;;;;;;20.86;46.07;101306.88;5052969;28;20106;-61
2022/03/29 08:44:15;;;;;;;16.58;10.88;;;;;;;20.90;46.06;101310.09;5052177;28;20021;-61
2022/03/29 08:46:42;;;;;;;17.77;11.13;;;;;;;20.97;46.21;101314.72;5052996;28;20025;-60
2022/03/29 08:49:09;;;;;;;17.83;11.05;;;;;;;21.00;45.81;101316.28;5052435;28;20013;-60
2022/03/29 08:51:37;;;;;;;19.70;11.93;;;;;;;20.97;45.80;101317.38;5051886;28;20021;-61
2022/03/29 08:54:03;;;;;;;16.80;11.00;;;;;;;20.95;45.71;101321.97;5052481;28;20025;-61
2022/03/29 08:56:28;;;;;;;18.42;12.30;;;;;;;20.92;45.61;101322.25;5052743;28;20353;-60
2022/03/29 08:58:54;;;;;;;17.08;11.88;;;;;;;20.93;45.79;101315.13;5051804;28;20043;-58
2022/03/29 09:01:21;;;;;;;15.55;10.60;;;;;;;20.92;45.78;101319.59;5052669;28;20107;-60
2022/03/29 09:04:02;;;;;;;16.35;11.23;;;;;;;20.99;45.85;101320.72;5052075;28;20072;-59
2022/03/29 09:06:28;;;;;;;17.58;11.48;;;;;;;21.04;46.04;101324.81;5052561;28;20387;-60
2022/03/29 09:08:53;;;;;;;16.88;10.57;;;;;;;21.06;45.98;101317.56;5052394;28;20531;-60
2022/03/29 09:11:19;;;;;;;15.50;10.85;;;;;;;21.06;46.04;101309.59;5052167;28;20075;-60
2022/03/29 09:13:44;;;;;;;17.85;11.15;;;;;;;21.09;45.67;101310.16;5052558;28;20123;-60
2022/03/29 09:16:31;;;;;;;20.80;13.27;;;;;;;21.05;44.94;101311.44;5052405;28;20064;-60
2022/03/29 09:18:57;;;;;;;18.77;11.80;;;;;;;21.04;45.63;101299.13;5051450;28;20476;-61
2022/03/29 09:21:24;;;;;;;16.92;11.70;;;;;;;21.06;45.83;101296.34;5052570;28;20112;-60
2022/03/29 09:24:11;;;;;;;18.80;11.77;;;;;;;21.07;45.68;101300.69;5052101;28;20081;-60
2022/03/29 09:26:43;;;;;;;17.13;11.05;;;;;;;21.09;45.76;101302.22;5051911;28;20025;-60
2022/03/29 09:29:35;;;;;;;17.67;11.43;;;;;;;21.13;45.40;101301.00;5052094;28;20025;-61
2022/03/29 09:32:06;;;;;;;22.42;11.52;;;;;;;21.16;45.37;101297.25;5050205;28;20044;-60
2022/03/29 09:34:32;;;;;;;16.38;11.75;;;;;;;21.18;45.01;101306.72;5052290;28;20392;-60
2022/03/29 09:36:59;;;;;;;18.70;11.85;;;;;;;21.21;45.06;101302.97;5054599;28;20021;-61
2022/03/29 09:39:39;;;;;;;16.70;11.55;;;;;;;21.23;44.88;101300.19;5055375;28;20106;-60
2022/03/29 09:42:12;;;;;;;22.13;12.02;;;;;;;21.22;44.88;101290.56;5055792;28;20032;-61
2022/03/29 09:44:40;;;;;;;20.17;12.32;;;;;;;21.21;45.16;101279.13;5056152;28;20036;-61
2022/03/29 09:47:07;;;;;;;20.52;13.50;;;;;;;21.21;45.09;101289.72;5054908;28;20033;-61
2022/03/29 09:49:54;;;;;;;22.08;13.10;;;;;;;21.20;45.00;101286.25;5056065;28;20380;-59
2022/03/29 09:52:22;;;;;;;19.23;12.55;;;;;;;21.20;45.25;101282.75;5055812;28;20025;-59
2022/03/29 09:55:19;;;;;;;22.55;13.10;;;;;;;21.19;45.37;101278.44;5055284;28;20025;-60
2022/03/29 09:57:45;;;;;;;22.23;14.00;;;;;;;21.16;45.18;101273.41;5055861;28;20110;-61
2022/03/29 10:00:16;;;;;;;23.02;14.82;;;;;;;21.13;45.42;101268.38;5054580;28;20484;-60
2022/03/29 10:02:44;;;;;;;21.27;13.52;;;;;;;21.11;45.64;101270.28;5055691;28;20102;-60
2022/03/29 10:05:11;;;;;;;21.80;13.25;;;;;;;21.10;45.40;101272.09;5055519;28;20082;-59
2022/03/29 10:10:43;;;;;;;24.20;13.88;;;;;;;21.09;45.48;101256.34;5055913;28;20063;-59
2022/03/29 10:13:09;;;;;;;23.75;14.63;;;;;;;21.09;45.79;101259.00;5055066;28;20025;-60
2022/03/29 10:15:34;;;;;;;29.65;16.83;;;;;;;21.05;44.92;101258.44;5054945;28;20025;-59
2022/03/29 10:18:00;;;;;;;24.88;15.30;;;;;;;21.05;45.26;101252.28;5055307;28;20468;-60
2022/03/29 10:20:27;;;;;;;24.17;14.18;;;;;;;21.04;45.45;101254.09;5055512;28;20021;-61
2022/03/29 10:22:54;;;;;;;22.27;14.15;;;;;;;21.04;45.58;101247.97;5054358;28;20131;-60
2022/03/29 10:25:19;;;;;;;22.25;13.88;;;;;;;21.01;45.51;101243.75;5055212;28;20087;-60
2022/03/29 10:27:46;;;;;;;23.52;14.98;;;;;;;21.01;45.42;101249.06;5055045;28;20029;-60
2022/03/29 10:30:12;;;;;;;23.33;14.32;;;;;;;21.00;45.53;101250.06;5054228;28;20021;-61
2022/03/29 10:32:40;;;;;;;23.23;14.43;;;;;;;20.94;45.43;101251.41;5055231;28;20063;-60
2022/03/29 10:35:08;;;;;;;23.60;14.48;;;;;;;20.96;45.76;101252.09;5054957;28;20037;-60
2022/03/29 10:37:56;;;;;;;22.70;13.80;;;;;;;21.01;45.63;101249.91;5054393;28;20025;-59
2022/03/29 10:40:41;;;;;;;22.27;13.93;;;;;;;21.07;45.95;101243.22;5055250;28;20112;-60
2022/03/29 10:43:26;;;;;;;23.65;14.13;;;;;;;21.12;45.94;101238.34;5053970;28;20025;-61
2022/03/29 10:45:51;;;;;;;22.33;13.85;;;;;;;21.13;46.10;101237.38;5054557;28;20041;-60
2022/03/29 10:48:17;;;;;;;25.70;13.63;;;;;;;21.18;46.27;101234.34;5054605;28;20102;-60
2022/03/29 10:50:54;;;;;;;20.33;12.45;;;;;;;21.18;45.96;101229.03;5053998;28;20323;-60
2022/03/29 10:53:36;;;;;;;20.23;13.20;;;;;;;21.19;45.80;101220.94;5054852;28;20039;-60
2022/03/29 10:56:10;;;;;;;22.15;13.32;;;;;;;21.17;46.02;101233.50;5054195;28;20033;-59
2022/03/29 10:58:35;;;;;;;19.83;12.27;;;;;;;21.15;46.20;101214.22;5053825;28;20029;-59
2022/03/29 11:01:16;;;;;;;20.10;13.40;;;;;;;21.18;46.01;101218.44;5054221;28;20503;-60
2022/03/29 11:04:07;;;;;;;21.02;12.60;;;;;;;21.20;46.41;101219.13;5053879;28;20131;-61
2022/03/29 11:06:33;;;;;;;19.73;12.95;;;;;;;21.23;46.05;101215.38;5054750;28;20025;-60
2022/03/29 11:09:07;;;;;;;17.98;11.70;;;;;;;21.22;45.22;101206.59;5054075;28;20082;-59
2022/03/29 11:11:35;;;;;;;18.23;11.77;;;;;;;21.23;45.59;101202.13;5053764;28;20082;-59
2022/03/29 11:14:33;;;;;;;21.42;11.70;;;;;;;21.22;45.68;101203.94;5053826;28;20102;-60
2022/03/29 11:17:04;;;;;;;22.38;13.43;;;;;;;21.22;45.52;101198.66;5054022;28;20040;-59
2022/03/29 11:19:54;;;;;;;18.70;11.70;;;;;;;21.21;45.47;101196.97;5053449;28;20053;-60
2022/03/29 11:22:43;;;;;;;16.48;11.40;;;;;;;21.17;45.48;101201.69;5054325;28;20021;-60
2022/03/29 11:25:12;;;;;;;18.13;11.13;;;;;;;21.17;45.35;101192.91;5053160;28;20029;-60
2022/03/29 11:27:38;;;;;;;17.65;11.18;;;;;;;21.17;45.35;101193.75;5054077;28;20035;-60
2022/03/29 11:30:07;;;;;;;17.70;11.80;;;;;;;21.18;45.44;101199.88;5053674;28;20028;-60
2022/03/29 11:32:39;;;;;;;17.98;11.98;;;;;;;21.17;45.71;101191.09;5052992;28;20372;-59
2022/03/29 11:35:07;;;;;;;16.60;11.55;;;;;;;21.15;46.43;101181.59;5054167;28;20033;-60